Time;durP1;ratioP1;P1;durP2;ratioP2;P2;SDS_P1;SDS_P2;PMS_P1;PMS_P2;Temp;Humidity;BMP_temperature;BMP_pressure;BME280_temperature;BME280_humidity;BME280_pressure;Samples;Min_cycle;Max_cycle;Signal;HPM_P1;HPM_P2
2023/06/04 00:02:16;;;;;;;5.72;2.97;;;12.30;99.90;;;;;;4985588;28;20046;-68
2023/06/04 00:04:42;;;;;;;7.20;2.60;;;12.30;99.90;;;;;;4972338;28;20078;-67
2023/06/04 00:07:07;;;;;;;7.63;2.50;;;12.30;99.90;;;;;;5001148;28;20358;-67
2023/06/04 00:09:33;;;;;;;6.73;2.40;;;12.20;99.90;;;;;;4986632;28;20727;-67
2023/06/04 00:11:59;;;;;;;11.63;2.60;;;12.20;99.90;;;;;;4992287;28;20042;-67
2023/06/04 00:14:25;;;;;;;6.05;2.60;;;12.20;99.90;;;;;;4987386;28;20400;-68
2023/06/04 00:16:50;;;;;;;5.00;2.50;;;12.20;99.90;;;;;;4990361;28;20044;-67
2023/06/04 00:19:16;;;;;;;5.70;2.00;;;12.10;99.90;;;;;;4987764;28;20291;-68
2023/06/04 00:21:41;;;;;;;6.87;2.20;;;12.10;99.90;;;;;;4988255;28;20118;-67
2023/06/04 00:24:07;;;;;;;5.20;2.33;;;12.10;99.90;;;;;;4987566;28;20292;-67
2023/06/04 00:26:33;;;;;;;4.80;2.20;;;12.10;99.90;;;;;;4988550;28;20137;-67
2023/06/04 00:29:00;;;;;;;7.60;3.30;;;12.00;99.90;;;;;;4987886;28;20284;-67
2023/06/04 00:31:26;;;;;;;6.57;2.30;;;12.00;99.90;;;;;;4982597;28;20563;-67
2023/06/04 00:33:52;;;;;;;9.13;2.40;;;12.00;99.90;;;;;;4995178;28;20129;-67
2023/06/04 00:36:17;;;;;;;6.97;2.67;;;12.00;99.90;;;;;;4993515;28;20045;-67
2023/06/04 00:38:43;;;;;;;7.10;2.95;;;11.90;99.90;;;;;;4992779;28;20046;-67
2023/06/04 00:41:09;;;;;;;9.93;2.83;;;11.90;99.90;;;;;;4984050;28;20459;-67
2023/06/04 00:43:35;;;;;;;7.53;2.60;;;11.90;99.90;;;;;;4987727;28;20103;-68
2023/06/04 00:46:03;;;;;;;5.75;2.90;;;11.80;99.90;;;;;;4985942;28;20300;-67
2023/06/04 00:48:30;;;;;;;9.52;2.63;;;11.80;99.90;;;;;;4988744;28;20069;-67
2023/06/04 00:50:56;;;;;;;6.38;2.47;;;11.80;99.90;;;;;;4990407;28;20088;-67
2023/06/04 00:53:24;;;;;;;14.00;2.80;;;11.70;99.90;;;;;;4985665;28;20100;-67
2023/06/04 00:55:50;;;;;;;5.60;2.97;;;11.70;99.90;;;;;;4992748;28;20054;-68
2023/06/04 00:58:16;;;;;;;;;;;11.70;99.90;;;;;;4987065;28;20125;-67
2023/06/04 01:00:45;;;;;;;6.75;2.05;;;11.70;99.90;;;;;;4999910;22;19996;-68
2023/06/04 01:03:17;;;;;;;6.47;2.45;;;11.60;99.90;;;;;;4990773;28;20495;-68
2023/06/04 01:06:02;;;;;;;5.32;2.50;;;11.60;99.90;;;;;;4986448;28;20046;-68
2023/06/04 01:08:28;;;;;;;6.65;2.10;;;11.60;99.90;;;;;;4984616;28;20121;-68
2023/06/04 01:10:55;;;;;;;5.70;2.58;;;11.60;99.90;;;;;;4987134;28;20052;-68
2023/06/04 01:13:21;;;;;;;6.05;2.42;;;11.60;99.90;;;;;;4985483;28;20508;-68
2023/06/04 01:15:47;;;;;;;3.90;1.95;;;11.60;99.90;;;;;;4967245;28;20050;-68
2023/06/04 01:18:27;;;;;;;7.03;2.50;;;11.60;99.90;;;;;;4982434;28;20581;-68
2023/06/04 01:21:07;;;;;;;5.10;2.03;;;11.50;99.90;;;;;;4982554;28;20053;-67
2023/06/04 01:23:46;;;;;;;6.18;2.35;;;11.50;99.90;;;;;;4983199;28;20507;-68
2023/06/04 01:26:12;;;;;;;8.80;2.70;;;11.40;99.90;;;;;;4984985;28;20046;-68
2023/06/04 01:28:38;;;;;;;4.93;3.00;;;11.40;99.90;;;;;;4985646;28;20030;-68
2023/06/04 01:31:07;;;;;;;9.38;2.92;;;11.40;99.90;;;;;;4981227;28;20077;-67
2023/06/04 01:33:33;;;;;;;5.45;2.17;;;11.40;99.90;;;;;;4977808;28;20066;-68
2023/06/04 01:36:00;;;;;;;8.38;2.50;;;11.30;99.90;;;;;;4983591;28;20302;-68
2023/06/04 01:38:26;;;;;;;4.82;2.80;;;11.30;99.90;;;;;;4987031;28;20038;-67
2023/06/04 01:40:56;;;;;;;4.57;2.25;;;11.30;99.90;;;;;;4989047;28;20042;-67
2023/06/04 01:43:22;;;;;;;6.75;2.42;;;11.30;99.90;;;;;;4987787;28;20423;-68
2023/06/04 01:45:48;;;;;;;7.03;2.92;;;11.20;99.90;;;;;;4986965;28;20072;-68
2023/06/04 01:48:14;;;;;;;6.35;2.22;;;11.20;99.90;;;;;;4986842;28;20042;-68
2023/06/04 01:50:39;;;;;;;6.13;2.08;;;11.20;99.90;;;;;;4981340;28;20050;-68
2023/06/04 01:53:06;;;;;;;6.88;2.30;;;11.10;99.90;;;;;;5003347;28;20137;-68
2023/06/04 01:55:33;;;;;;;9.38;3.13;;;11.20;99.90;;;;;;4985406;28;20088;-68
2023/06/04 01:58:00;;;;;;;5.80;2.10;;;11.20;99.90;;;;;;4983738;28;20101;-68
2023/06/04 02:00:26;;;;;;;4.75;2.47;;;11.20;99.90;;;;;;4984713;28;20579;-68
2023/06/04 02:02:52;;;;;;;5.63;2.25;;;11.10;99.90;;;;;;4983820;28;20054;-68
2023/06/04 02:05:18;;;;;;;;;;;11.10;99.90;;;;;;5000873;28;20108;-68
2023/06/04 02:07:45;;;;;;;8.20;2.50;;;11.10;99.90;;;;;;4992547;28;20263;-68
2023/06/04 02:10:16;;;;;;;5.25;2.67;;;11.10;99.90;;;;;;4985447;28;20034;-68
2023/06/04 02:12:53;;;;;;;4.03;2.05;;;11.10;99.90;;;;;;5001209;28;20050;-69
2023/06/04 02:15:19;;;;;;;9.70;2.92;;;11.10;99.90;;;;;;4985648;28;20043;-68
2023/06/04 02:17:45;;;;;;;6.07;2.78;;;11.10;99.90;;;;;;4985359;28;20061;-68
2023/06/04 02:20:11;;;;;;;5.90;2.33;;;11.00;99.90;;;;;;4984190;28;20065;-68
2023/06/04 02:22:40;;;;;;;10.35;2.85;;;11.00;99.90;;;;;;4985088;28;20490;-68
2023/06/04 02:25:08;;;;;;;6.40;2.92;;;11.00;99.90;;;;;;4999725;28;20380;-68
2023/06/04 02:27:34;;;;;;;5.40;2.38;;;11.00;99.90;;;;;;4985404;28;20117;-68
2023/06/04 02:30:00;;;;;;;13.32;2.75;;;11.00;99.90;;;;;;4995694;28;20583;-68
2023/06/04 02:32:25;;;;;;;7.15;2.33;;;11.00;99.90;;;;;;5000172;28;20042;-67
2023/06/04 02:34:51;;;;;;;5.73;2.93;;;11.00;99.90;;;;;;4982386;28;20078;-68
2023/06/04 02:37:17;;;;;;;5.18;2.50;;;11.00;99.90;;;;;;4979162;28;20065;-68
2023/06/04 02:39:43;;;;;;;5.43;2.55;;;11.00;99.90;;;;;;4984235;28;20050;-68
2023/06/04 02:42:08;;;;;;;6.63;2.70;;;11.00;99.90;;;;;;4981417;28;20392;-68
2023/06/04 02:44:34;;;;;;;8.13;2.50;;;11.00;99.90;;;;;;4988545;28;20137;-68
2023/06/04 02:47:00;;;;;;;8.47;2.67;;;11.00;99.90;;;;;;4984109;28;20049;-68
2023/06/04 02:49:25;;;;;;;8.83;2.47;;;10.90;99.90;;;;;;4988315;28;20026;-68
2023/06/04 02:51:51;;;;;;;4.30;1.93;;;10.90;99.90;;;;;;4984862;28;20113;-68
2023/06/04 02:54:17;;;;;;;6.40;2.53;;;10.90;99.90;;;;;;4984435;28;20045;-68
2023/06/04 02:56:43;;;;;;;7.40;2.65;;;10.90;99.90;;;;;;4984633;28;20089;-68
2023/06/04 02:59:09;;;;;;;7.18;2.53;;;10.90;99.90;;;;;;4983257;28;20046;-68
2023/06/04 03:01:35;;;;;;;8.98;3.03;;;10.90;99.90;;;;;;4965523;28;20046;-68
2023/06/04 03:04:04;;;;;;;5.88;2.30;;;10.90;99.90;;;;;;4985306;28;20042;-68
2023/06/04 03:06:32;;;;;;;6.70;2.60;;;10.90;99.90;;;;;;4985823;28;20073;-67
2023/06/04 03:08:58;;;;;;;5.85;2.25;;;10.80;99.90;;;;;;4980420;28;20372;-67
2023/06/04 03:11:23;;;;;;;6.97;3.05;;;10.80;99.90;;;;;;4985281;28;20030;-68
2023/06/04 03:13:51;;;;;;;6.57;2.93;;;10.90;99.90;;;;;;4983935;28;20054;-69
2023/06/04 03:16:17;;;;;;;8.52;2.78;;;10.90;99.90;;;;;;4997900;28;20038;-68
2023/06/04 03:18:44;;;;;;;8.63;2.65;;;10.80;99.90;;;;;;4983362;28;20038;-68
2023/06/04 03:21:11;;;;;;;;;;;10.80;99.90;;;;;;4984517;28;20042;-68
2023/06/04 03:23:37;;;;;;;6.13;2.38;;;10.80;99.90;;;;;;4982944;28;19921;-68
2023/06/04 03:26:03;;;;;;;5.37;2.43;;;10.80;99.90;;;;;;4982529;28;20057;-68
2023/06/04 03:28:28;;;;;;;6.22;2.90;;;10.80;99.90;;;;;;4984964;28;20497;-68
2023/06/04 03:30:54;;;;;;;8.07;3.67;;;10.80;99.90;;;;;;4991194;28;20050;-68
2023/06/04 03:33:20;;;;;;;4.50;2.60;;;10.80;99.90;;;;;;4958440;28;20039;-68
2023/06/04 03:35:47;;;;;;;8.93;2.78;;;10.80;99.90;;;;;;4990059;28;20046;-68
2023/06/04 03:38:13;;;;;;;9.05;3.30;;;10.80;99.90;;;;;;5007729;28;20100;-68
2023/06/04 03:40:39;;;;;;;5.85;2.85;;;10.80;99.90;;;;;;4981915;28;20124;-68
2023/06/04 03:43:05;;;;;;;7.50;2.80;;;10.80;99.90;;;;;;4983283;28;20043;-68
2023/06/04 03:45:30;;;;;;;7.00;2.80;;;10.80;99.90;;;;;;4998400;28;20161;-68
2023/06/04 03:47:56;;;;;;;4.40;2.73;;;10.80;99.90;;;;;;4982603;28;20088;-67
2023/06/04 03:50:22;;;;;;;7.53;3.03;;;10.70;99.90;;;;;;4983934;28;20355;-68
2023/06/04 03:52:49;;;;;;;7.10;2.75;;;10.70;99.90;;;;;;4987680;28;20492;-68
2023/06/04 03:55:14;;;;;;;6.85;3.25;;;10.70;99.90;;;;;;4984708;28;20061;-68
2023/06/04 03:57:40;;;;;;;9.23;3.57;;;10.70;99.90;;;;;;4984768;28;20046;-68
2023/06/04 04:00:11;;;;;;;5.10;2.50;;;10.70;99.90;;;;;;4981792;28;20153;-68
2023/06/04 04:02:37;;;;;;;6.22;3.25;;;10.70;99.90;;;;;;4986245;28;20042;-68
2023/06/04 04:05:03;;;;;;;7.50;3.03;;;10.80;99.90;;;;;;4989883;28;20112;-68
2023/06/04 04:07:28;;;;;;;7.10;2.95;;;10.80;99.90;;;;;;4999012;28;20328;-68
2023/06/04 04:09:54;;;;;;;9.73;2.93;;;10.70;99.90;;;;;;4997518;28;20068;-68
2023/06/04 04:12:20;;;;;;;6.63;2.97;;;10.70;99.90;;;;;;4990749;28;20053;-67
2023/06/04 04:14:47;;;;;;;8.07;3.00;;;10.80;99.90;;;;;;5003362;28;20050;-68
2023/06/04 04:17:13;;;;;;;8.13;3.10;;;10.80;99.90;;;;;;4986320;28;20058;-68
2023/06/04 04:19:39;;;;;;;6.28;2.88;;;10.80;99.90;;;;;;4986673;28;20285;-68
2023/06/04 04:22:05;;;;;;;5.40;2.83;;;10.80;99.90;;;;;;4987288;28;20281;-68
2023/06/04 04:24:31;;;;;;;8.65;3.03;;;10.90;99.90;;;;;;4990132;28;20322;-67
2023/06/04 04:26:58;;;;;;;6.32;2.83;;;10.90;99.90;;;;;;4988493;28;20423;-70
2023/06/04 04:29:24;;;;;;;7.07;3.10;;;10.90;99.90;;;;;;4991416;28;20077;-68
2023/06/04 04:31:51;;;;;;;4.35;2.92;;;10.90;99.90;;;;;;4988781;28;20055;-68
2023/06/04 04:34:17;;;;;;;7.15;3.10;;;11.00;99.90;;;;;;4985245;28;20567;-68
2023/06/04 04:36:44;;;;;;;8.98;3.45;;;11.00;99.90;;;;;;4984744;28;20042;-67
2023/06/04 04:39:10;;;;;;;11.88;3.70;;;11.00;99.90;;;;;;4987490;28;20046;-68
2023/06/04 04:41:37;;;;;;;7.05;2.58;;;11.10;99.90;;;;;;4986739;28;20288;-68
2023/06/04 04:44:07;;;;;;;11.70;3.40;;;11.10;99.90;;;;;;4980380;28;20046;-68
2023/06/04 04:46:32;;;;;;;9.57;3.72;;;11.20;99.90;;;;;;4979516;28;20050;-68
2023/06/04 04:48:58;;;;;;;7.78;3.30;;;11.20;99.90;;;;;;4981079;28;20218;-67
2023/06/04 04:51:25;;;;;;;6.97;2.70;;;11.30;99.90;;;;;;4996856;28;20066;-67
2023/06/04 04:53:50;;;;;;;6.13;2.93;;;11.30;99.90;;;;;;4994114;28;20456;-67
2023/06/04 04:56:16;;;;;;;7.60;2.83;;;11.30;99.90;;;;;;4987559;28;20057;-68
2023/06/04 04:58:42;;;;;;;7.57;3.13;;;11.40;99.90;;;;;;4989020;28;20038;-68
2023/06/04 05:01:07;;;;;;;9.18;3.45;;;11.50;99.90;;;;;;4989472;28;20034;-67
2023/06/04 05:03:33;;;;;;;5.40;3.20;;;11.40;99.90;;;;;;4984403;28;20062;-67
2023/06/04 05:05:58;;;;;;;7.07;2.60;;;11.50;99.90;;;;;;4987893;28;20490;-67
2023/06/04 05:08:24;;;;;;;8.43;3.03;;;11.60;99.90;;;;;;4984918;28;20346;-68
2023/06/04 05:10:50;;;;;;;9.73;3.07;;;11.60;99.90;;;;;;4993741;28;20114;-68
2023/06/04 05:13:17;;;;;;;8.48;3.03;;;11.60;99.90;;;;;;4987871;28;20860;-69
2023/06/04 05:15:43;;;;;;;7.47;2.78;;;11.70;99.90;;;;;;4985610;28;20096;-68
2023/06/04 05:18:09;;;;;;;8.80;3.28;;;11.80;99.90;;;;;;4980287;28;20074;-68
2023/06/04 05:20:37;;;;;;;5.22;2.70;;;11.80;99.90;;;;;;4964113;28;20047;-67
2023/06/04 05:23:03;;;;;;;6.50;3.35;;;11.90;99.90;;;;;;5008740;28;20046;-67
2023/06/04 05:25:29;;;;;;;6.93;2.85;;;12.00;99.90;;;;;;4980830;28;20039;-67
2023/06/04 05:27:56;;;;;;;8.95;3.25;;;12.00;99.90;;;;;;5003665;28;20137;-67
2023/06/04 05:30:22;;;;;;;7.85;2.95;;;12.10;99.90;;;;;;4985209;28;20042;-67
2023/06/04 05:32:50;;;;;;;5.72;3.53;;;12.10;99.90;;;;;;4978781;28;20043;-67
2023/06/04 05:35:16;;;;;;;7.68;3.47;;;12.20;99.90;;;;;;4988095;28;20117;-68
2023/06/04 05:37:45;;;;;;;11.75;3.78;;;12.30;99.90;;;;;;4986325;28;20054;-68
2023/06/04 05:40:11;;;;;;;6.28;3.17;;;12.40;99.90;;;;;;4996781;28;20176;-68
2023/06/04 05:42:37;;;;;;;8.43;3.72;;;12.40;99.90;;;;;;5004828;28;20042;-68
2023/06/04 05:45:04;;;;;;;10.27;3.90;;;12.60;99.90;;;;;;4990942;28;20550;-67
2023/06/04 05:47:29;;;;;;;6.00;3.35;;;12.60;99.90;;;;;;4982149;28;20439;-67
2023/06/04 05:49:55;;;;;;;7.50;3.50;;;12.60;99.90;;;;;;4991567;28;20042;-68
2023/06/04 05:52:21;;;;;;;9.40;3.88;;;12.70;99.90;;;;;;5007599;28;20045;-67
2023/06/04 05:54:47;;;;;;;6.67;3.57;;;12.80;99.90;;;;;;4973856;28;20046;-67
2023/06/04 05:57:12;;;;;;;6.83;3.07;;;12.90;99.90;;;;;;4987909;28;20038;-68
2023/06/04 05:59:38;;;;;;;8.90;4.00;;;12.90;99.90;;;;;;4993215;28;20042;-67
2023/06/04 06:02:03;;;;;;;7.60;2.87;;;13.00;99.90;;;;;;4988099;28;20058;-68
2023/06/04 06:04:29;;;;;;;11.13;3.30;;;13.10;99.90;;;;;;4986793;28;20034;-67
2023/06/04 06:06:56;;;;;;;13.23;3.33;;;13.10;99.90;;;;;;5010767;28;20072;-67
2023/06/04 06:09:21;;;;;;;;;;;13.20;99.90;;;;;;5003667;28;20077;-67
2023/06/04 06:11:47;;;;;;;9.15;3.10;;;13.30;99.90;;;;;;4987554;28;20419;-67
2023/06/04 06:14:12;;;;;;;7.35;2.67;;;13.40;99.90;;;;;;4998847;28;20177;-67
2023/06/04 06:16:38;;;;;;;7.50;2.87;;;13.40;99.90;;;;;;4989025;28;20069;-67
2023/06/04 06:19:04;;;;;;;5.80;2.03;;;13.50;99.90;;;;;;4988060;28;20048;-67
2023/06/04 06:21:30;;;;;;;8.85;2.13;;;13.60;99.90;;;;;;4984471;28;20492;-67
2023/06/04 06:23:55;;;;;;;11.85;2.35;;;13.70;99.90;;;;;;4986109;28;20081;-67
2023/06/04 06:26:22;;;;;;;7.83;2.40;;;13.70;99.90;;;;;;4995315;28;20121;-67
2023/06/04 06:28:48;;;;;;;7.72;2.90;;;13.80;99.90;;;;;;4977375;28;20038;-67
2023/06/04 06:31:14;;;;;;;8.43;2.33;;;13.80;99.90;;;;;;4984788;28;20049;-67
2023/06/04 06:33:40;;;;;;;;;;;13.90;99.90;;;;;;4985625;28;20374;-67
2023/06/04 06:36:18;;;;;;;6.38;2.08;;;13.90;99.90;;;;;;4987723;28;19918;-67
2023/06/04 06:38:44;;;;;;;8.05;2.40;;;14.10;99.90;;;;;;4984706;28;20101;-67
2023/06/04 06:41:10;;;;;;;5.10;2.28;;;14.10;99.90;;;;;;4984414;28;20074;-67
2023/06/04 06:43:36;;;;;;;7.63;2.40;;;14.20;99.90;;;;;;4988332;28;20061;-67
2023/06/04 06:46:02;;;;;;;5.97;2.08;;;14.20;99.90;;;;;;4994075;28;20050;-67
2023/06/04 06:48:27;;;;;;;4.15;1.50;;;14.20;99.90;;;;;;4984398;28;20440;-67
2023/06/04 06:50:54;;;;;;;4.68;1.70;;;14.30;99.90;;;;;;4986903;28;20050;-67
2023/06/04 06:53:19;;;;;;;;;;;14.40;99.90;;;;;;4997794;28;20046;-67
2023/06/04 06:55:45;;;;;;;8.98;1.63;;;14.50;99.90;;;;;;4974082;28;20403;-67
2023/06/04 06:58:11;;;;;;;6.13;1.55;;;14.50;99.90;;;;;;4997267;28;20042;-68
2023/06/04 07:03:08;;;;;;;3.88;1.40;;;14.70;99.90;;;;;;4968057;28;20050;-69
2023/06/04 07:05:33;;;;;;;6.25;1.90;;;14.70;99.90;;;;;;4942709;28;20086;-69
2023/06/04 07:08:00;;;;;;;4.40;1.43;;;14.80;99.90;;;;;;4945756;28;20043;-69
2023/06/04 07:10:27;;;;;;;5.30;1.63;;;14.80;99.90;;;;;;4946454;28;20402;-69
2023/06/04 07:12:52;;;;;;;8.38;1.77;;;14.90;99.90;;;;;;4965228;28;20066;-69
2023/06/04 07:15:18;;;;;;;7.17;1.83;;;14.90;99.90;;;;;;4965996;28;20047;-67
2023/06/04 07:17:44;;;;;;;4.45;1.45;;;15.00;99.90;;;;;;4944651;28;20301;-67
2023/06/04 07:20:10;;;;;;;5.15;1.38;;;15.00;99.90;;;;;;4959368;28;20435;-67
2023/06/04 07:22:35;;;;;;;9.57;1.38;;;15.10;99.90;;;;;;4963195;28;20386;-66
2023/06/04 07:25:01;;;;;;;5.88;1.85;;;15.20;99.90;;;;;;4952741;28;20050;-67
2023/06/04 07:27:27;;;;;;;6.65;1.83;;;15.20;99.90;;;;;;4948024;28;20042;-66
2023/06/04 07:29:53;;;;;;;5.40;1.38;;;15.30;99.90;;;;;;4963005;28;20043;-67
2023/06/04 07:32:19;;;;;;;5.40;1.33;;;15.40;99.90;;;;;;4948801;28;20411;-67
2023/06/04 07:34:45;;;;;;;5.22;1.42;;;15.40;99.90;;;;;;4963584;28;20520;-67
2023/06/04 07:37:11;;;;;;;4.13;0.95;;;15.50;99.90;;;;;;4957163;28;20051;-67
2023/06/04 07:39:36;;;;;;;;;;;15.50;99.90;;;;;;4965187;28;20054;-67
2023/06/04 07:42:04;;;;;;;7.13;1.25;;;15.60;99.90;;;;;;4962494;28;19917;-67
2023/06/04 07:44:29;;;;;;;5.82;1.90;;;15.70;99.90;;;;;;4949889;28;20051;-67
2023/06/04 07:46:55;;;;;;;4.85;1.30;;;15.70;99.90;;;;;;4951404;28;20034;-67
2023/06/04 07:49:21;;;;;;;7.60;1.30;;;15.80;99.90;;;;;;4950772;28;20456;-67
2023/06/04 07:51:47;;;;;;;4.27;1.30;;;15.80;99.90;;;;;;4963779;28;20051;-66
2023/06/04 07:54:14;;;;;;;;;;;15.90;99.90;;;;;;4971709;28;20808;-67
2023/06/04 07:56:39;;;;;;;5.75;1.10;;;16.00;99.90;;;;;;4960312;28;19925;-67
2023/06/04 07:59:05;;;;;;;2.70;1.10;;;16.00;99.90;;;;;;4965445;28;20034;-67
2023/06/04 08:01:31;;;;;;;3.10;1.20;;;16.10;99.90;;;;;;4965282;28;20093;-67
2023/06/04 08:03:58;;;;;;;4.72;1.23;;;16.20;99.90;;;;;;4954578;28;20401;-67
2023/06/04 08:06:26;;;;;;;4.95;0.98;;;16.30;99.90;;;;;;4965113;28;20561;-67
2023/06/04 08:08:52;;;;;;;6.00;1.33;;;16.30;99.90;;;;;;4960931;28;20049;-67
2023/06/04 08:11:18;;;;;;;11.07;1.42;;;16.40;99.90;;;;;;4953364;28;20097;-67
2023/06/04 08:13:43;;;;;;;4.15;1.45;;;16.50;99.90;;;;;;4967543;28;20051;-67
2023/06/04 08:16:10;;;;;;;4.13;1.20;;;16.50;99.90;;;;;;4948788;28;20434;-66
2023/06/04 08:18:42;;;;;;;4.32;1.40;;;16.60;99.90;;;;;;4950564;28;20336;-67
2023/06/04 08:21:11;;;;;;;4.50;0.93;;;16.70;99.90;;;;;;4949951;28;20054;-67
2023/06/04 08:23:37;;;;;;;2.33;1.10;;;16.70;99.90;;;;;;4955119;28;20043;-68
2023/06/04 08:26:03;;;;;;;3.45;1.27;;;16.80;99.90;;;;;;4953605;28;20507;-68
2023/06/04 08:28:28;;;;;;;3.00;1.10;;;16.80;99.90;;;;;;4946466;28;20080;-68
2023/06/04 08:30:54;;;;;;;2.20;0.80;;;16.90;99.90;;;;;;4963572;28;20038;-68
2023/06/04 08:33:20;;;;;;;2.03;0.73;;;17.00;99.90;;;;;;4953217;28;20416;-67
2023/06/04 08:35:46;;;;;;;4.88;1.25;;;17.10;99.90;;;;;;4962991;28;20047;-68
2023/06/04 08:38:11;;;;;;;4.28;1.27;;;17.20;99.90;;;;;;4947783;28;20351;-68
2023/06/04 08:40:37;;;;;;;4.95;1.50;;;17.30;99.90;;;;;;4951660;28;20063;-68
2023/06/04 08:43:05;;;;;;;3.65;1.30;;;17.40;99.90;;;;;;4956287;28;20054;-68
2023/06/04 08:45:33;;;;;;;8.18;1.10;;;17.40;99.90;;;;;;4965320;28;20047;-67
2023/06/04 08:47:59;;;;;;;2.85;1.38;;;17.40;99.90;;;;;;4967711;28;20496;-67
2023/06/04 08:50:25;;;;;;;1.90;0.90;;;17.60;99.90;;;;;;4977912;28;20336;-68
2023/06/04 08:52:55;;;;;;;5.53;0.95;;;17.60;99.90;;;;;;4972080;28;20412;-68
2023/06/04 08:55:22;;;;;;;3.55;0.90;;;17.70;99.90;;;;;;4974727;28;20085;-68
2023/06/04 08:57:52;;;;;;;2.47;1.27;;;17.70;99.90;;;;;;4950112;28;20039;-68
2023/06/04 09:00:19;;;;;;;2.30;0.73;;;17.80;99.90;;;;;;4955455;28;20096;-68
2023/06/04 09:02:46;;;;;;;3.05;0.98;;;17.80;99.90;;;;;;4965973;28;20046;-68
2023/06/04 09:05:19;;;;;;;2.70;1.10;;;17.90;99.90;;;;;;4949034;28;20523;-68
2023/06/04 09:07:46;;;;;;;2.13;0.90;;;18.00;99.90;;;;;;4946892;28;20399;-67
2023/06/04 09:10:18;;;;;;;3.88;1.17;;;18.00;99.90;;;;;;4957411;28;20046;-68
2023/06/04 09:12:46;;;;;;;7.07;1.80;;;18.20;99.90;;;;;;4966930;28;20077;-68
2023/06/04 09:15:12;;;;;;;3.28;0.90;;;18.20;99.90;;;;;;4937673;28;20054;-67
2023/06/04 09:17:38;;;;;;;2.90;1.10;;;18.30;99.90;;;;;;4945239;28;20496;-65
2023/06/04 09:20:12;;;;;;;5.63;1.23;;;18.30;99.90;;;;;;4950725;28;20055;-65
2023/06/04 09:22:38;;;;;;;2.38;1.00;;;18.50;99.90;;;;;;4955053;28;20099;-65
2023/06/04 09:25:09;;;;;;;3.30;1.33;;;18.60;99.90;;;;;;4964643;28;20050;-65
2023/06/04 09:27:40;;;;;;;3.47;1.42;;;18.60;99.90;;;;;;4950422;28;20042;-65
2023/06/04 09:30:08;;;;;;;2.60;1.02;;;18.70;99.90;;;;;;4966572;28;20043;-65
2023/06/04 09:32:34;;;;;;;2.22;0.90;;;18.70;99.90;;;;;;4961828;28;20042;-67
2023/06/04 09:35:15;;;;;;;4.47;1.30;;;18.80;99.90;;;;;;4956640;28;20112;-65
2023/06/04 09:37:53;;;;;;;5.25;1.27;;;18.80;99.90;;;;;;4945351;28;20078;-65
2023/06/04 09:40:19;;;;;;;6.13;1.48;;;18.90;99.90;;;;;;4965013;28;20101;-65
2023/06/04 09:42:53;;;;;;;2.35;0.70;;;18.80;99.90;;;;;;4966357;28;20118;-66
2023/06/04 09:45:31;;;;;;;3.63;0.88;;;18.90;99.90;;;;;;4968022;28;20055;-65
2023/06/04 09:47:57;;;;;;;3.63;1.08;;;19.00;99.90;;;;;;4956545;28;20060;-65
2023/06/04 09:50:27;;;;;;;4.47;0.80;;;18.90;99.90;;;;;;4960382;28;20458;-65
2023/06/04 09:52:53;;;;;;;2.15;1.33;;;19.00;99.90;;;;;;4962585;28;20058;-66
2023/06/04 09:55:20;;;;;;;2.53;1.08;;;19.10;99.90;;;;;;4944475;28;20054;-65
2023/06/04 09:57:50;;;;;;;2.38;1.00;;;19.10;99.90;;;;;;4960147;28;20051;-66
2023/06/04 10:00:20;;;;;;;2.80;1.10;;;19.20;99.90;;;;;;4960823;28;20046;-65
2023/06/04 10:02:47;;;;;;;3.15;0.90;;;19.20;99.90;;;;;;4959828;28;20583;-65
2023/06/04 10:05:14;;;;;;;5.03;1.30;;;19.10;99.90;;;;;;4960068;28;20038;-65
2023/06/04 10:07:43;;;;;;;4.80;1.30;;;19.20;99.90;;;;;;4960400;28;20053;-65
2023/06/04 10:10:25;;;;;;;2.72;0.82;;;19.40;99.90;;;;;;4960220;28;20583;-65
2023/06/04 10:13:00;;;;;;;4.25;2.05;;;19.50;99.90;;;;;;4959357;28;20058;-65
2023/06/04 10:15:26;;;;;;;2.97;1.08;;;19.60;99.90;;;;;;4957520;28;20057;-66
2023/06/04 10:17:54;;;;;;;3.15;1.30;;;19.60;99.90;;;;;;4954401;28;20050;-65
2023/06/04 10:20:21;;;;;;;2.55;0.90;;;19.70;99.90;;;;;;4959919;28;20065;-65
2023/06/04 10:22:49;;;;;;;3.30;1.17;;;19.80;99.90;;;;;;4960585;28;20416;-65
2023/06/04 10:25:16;;;;;;;4.10;1.17;;;20.00;99.90;;;;;;4954527;28;20133;-66
2023/06/04 10:27:42;;;;;;;3.72;0.90;;;20.00;99.90;;;;;;4975933;28;20564;-66
2023/06/04 10:30:08;;;;;;;;;;;20.00;99.90;;;;;;4966768;28;20046;-64
2023/06/04 10:32:34;;;;;;;3.13;1.10;;;20.00;99.90;;;;;;4959806;28;20423;-64
2023/06/04 10:35:04;;;;;;;4.10;1.15;;;20.00;99.90;;;;;;4960996;28;20144;-64
2023/06/04 10:37:30;;;;;;;3.80;0.90;;;20.10;99.90;;;;;;4951344;28;20042;-64
2023/06/04 10:40:00;;;;;;;4.45;1.17;;;20.20;99.90;;;;;;4961418;28;20094;-64
2023/06/04 10:42:26;;;;;;;5.95;1.15;;;20.20;99.90;;;;;;4954414;28;20493;-64
2023/06/04 10:44:52;;;;;;;;;;;20.10;99.90;;;;;;4956033;28;20343;-63
2023/06/04 10:47:22;;;;;;;5.78;1.00;;;20.10;99.90;;;;;;4945013;28;19921;-64
2023/06/04 10:49:50;;;;;;;5.03;1.00;;;20.10;99.90;;;;;;4959379;28;20406;-63
2023/06/04 10:52:16;;;;;;;4.43;1.40;;;20.20;99.90;;;;;;4946900;28;20050;-65
2023/06/04 10:54:43;;;;;;;3.40;0.93;;;20.30;99.90;;;;;;4958663;28;20047;-64
2023/06/04 10:57:13;;;;;;;3.05;0.90;;;20.40;99.90;;;;;;4936484;28;20073;-64
2023/06/04 10:59:41;;;;;;;5.75;1.20;;;20.40;99.90;;;;;;4950910;28;20047;-64
2023/06/04 11:02:08;;;;;;;2.63;1.00;;;20.50;99.90;;;;;;4958278;28;20039;-70
2023/06/04 11:04:35;;;;;;;2.95;1.02;;;20.60;99.90;;;;;;4940486;28;20627;-63
2023/06/04 11:07:10;;;;;;;4.18;1.23;;;20.70;99.90;;;;;;4940831;28;20134;-63
2023/06/04 11:09:55;;;;;;;3.85;0.88;;;20.60;99.90;;;;;;4953479;28;20049;-63
2023/06/04 11:12:21;;;;;;;6.82;0.95;;;20.70;99.90;;;;;;4947723;28;20042;-65
2023/06/04 11:14:56;;;;;;;4.25;1.23;;;20.70;99.90;;;;;;4955206;28;20121;-65
2023/06/04 11:17:22;;;;;;;2.83;1.30;;;20.90;99.90;;;;;;4963796;28;20413;-64
2023/06/04 11:19:48;;;;;;;2.28;1.00;;;21.00;99.90;;;;;;4939771;28;20042;-65
2023/06/04 11:22:14;;;;;;;4.25;1.00;;;21.10;99.90;;;;;;4958094;28;20058;-66
2023/06/04 11:24:40;;;;;;;4.30;1.25;;;21.10;99.90;;;;;;4939083;28;20501;-67
2023/06/04 11:27:06;;;;;;;2.33;0.80;;;21.10;99.90;;;;;;4934212;28;20074;-66
2023/06/04 11:29:32;;;;;;;;;;;21.20;99.90;;;;;;4954627;28;20157;-66
2023/06/04 11:31:58;;;;;;;3.10;1.20;;;21.20;99.90;;;;;;4958262;28;19929;-67
2023/06/04 11:34:28;;;;;;;;;;;21.20;99.90;;;;;;4938391;28;20389;-66
2023/06/04 11:36:55;;;;;;;3.35;0.85;;;21.20;99.90;;;;;;4969236;28;20295;-67
2023/06/04 11:39:35;;;;;;;2.47;0.90;;;21.30;99.60;;;;;;4970750;28;20414;-66
2023/06/04 11:42:20;;;;;;;2.10;0.80;;;21.30;99.20;;;;;;4949649;28;20043;-67
2023/06/04 11:44:48;;;;;;;3.92;1.10;;;21.30;97.50;;;;;;4885545;28;20046;-67
2023/06/04 11:47:15;;;;;;;3.42;1.48;;;21.20;97.70;;;;;;4953790;28;20452;-66
2023/06/04 11:49:42;;;;;;;2.58;1.10;;;21.20;97.70;;;;;;4967110;28;20392;-66
2023/06/04 11:52:09;;;;;;;6.38;1.40;;;21.30;97.80;;;;;;4787074;28;20412;-65
2023/06/04 11:54:45;;;;;;;5.03;0.93;;;21.30;98.20;;;;;;4775968;28;20720;-70
2023/06/04 11:57:11;;;;;;;3.83;1.02;;;21.40;98.80;;;;;;4953005;28;20034;-65
2023/06/04 11:59:36;;;;;;;6.90;2.70;;;21.60;98.40;;;;;;4940349;28;20274;-66
2023/06/04 12:02:03;;;;;;;2.30;1.05;;;21.70;97.90;;;;;;4951448;28;20049;-65
2023/06/04 12:07:09;;;;;;;3.10;1.23;;;21.70;96.50;;;;;;3211083;22;20092;-64
2023/06/04 12:09:39;;;;;;;3.28;1.17;;;21.70;95.80;;;;;;4994576;28;20495;-64
2023/06/04 12:12:08;;;;;;;3.03;0.93;;;21.70;95.80;;;;;;4997637;28;20041;-65
2023/06/04 12:14:34;;;;;;;3.08;1.10;;;21.70;95.70;;;;;;5002278;28;20038;-64
2023/06/04 12:17:08;;;;;;;2.97;1.10;;;21.70;95.60;;;;;;4981839;28;20045;-72
2023/06/04 12:19:50;;;;;;;5.00;1.23;;;21.80;95.20;;;;;;4998216;28;20045;-66
2023/06/04 12:22:16;;;;;;;1.60;1.00;;;21.80;95.30;;;;;;5001682;28;20042;-66
2023/06/04 12:24:47;;;;;;;;;;;21.90;94.90;;;;;;4994853;28;20087;-65
2023/06/04 12:27:13;;;;;;;5.95;1.25;;;21.90;95.00;;;;;;4984170;28;20295;-65
2023/06/04 12:29:39;;;;;;;;;;;22.00;95.10;;;;;;5000403;28;20033;-65
2023/06/04 12:32:11;;;;;;;2.85;1.10;;;22.00;95.90;;;;;;4990119;28;20953;-64
2023/06/04 12:34:40;;;;;;;2.55;1.10;;;22.00;94.50;;;;;;4988502;28;20503;-67
2023/06/04 12:37:07;;;;;;;2.60;1.00;;;22.00;94.60;;;;;;5002637;28;20084;-70
2023/06/04 12:39:39;;;;;;;3.83;1.15;;;22.00;95.40;;;;;;4984398;28;20034;-69
2023/06/04 12:42:13;;;;;;;2.65;0.93;;;22.10;94.80;;;;;;4986655;28;20037;-64
2023/06/04 12:44:40;;;;;;;2.63;0.90;;;22.10;93.80;;;;;;4996221;28;20411;-64
2023/06/04 12:47:06;;;;;;;1.80;0.95;;;22.10;92.60;;;;;;4981311;28;21067;-64
2023/06/04 12:49:32;;;;;;;5.10;1.00;;;22.00;92.40;;;;;;4992834;28;20081;-64
2023/06/04 12:51:57;;;;;;;;;;;22.00;92.00;;;;;;4998802;28;20065;-64
2023/06/04 12:54:27;;;;;;;3.03;1.65;;;21.90;92.40;;;;;;4989391;28;19969;-64
2023/06/04 12:56:58;;;;;;;5.25;1.85;;;21.80;92.40;;;;;;4984580;28;20046;-64